createdAt,value
2022-10-14T00:01:30.754Z,75675.63
2022-10-14T00:11:34.537Z,75679.69
2022-10-14T00:22:00.066Z,75687.78
2022-10-14T00:32:07.691Z,75701.94
2022-10-14T00:42:18.301Z,75708.03
2022-10-14T00:52:22.577Z,75718.13
2022-10-14T01:02:29.783Z,75732.31
2022-10-14T01:12:50.866Z,75728.25
2022-10-14T01:23:06.948Z,75724.22
2022-10-14T01:33:17.057Z,75738.38
2022-10-14T01:43:27.962Z,75752.53
2022-10-14T01:53:34.495Z,75746.47
2022-10-14T02:03:42.122Z,75744.44
2022-10-14T02:13:55.606Z,75754.56
2022-10-14T02:24:08.934Z,75762.66
2022-10-14T02:34:17.178Z,75762.66
2022-10-14T02:44:25.631Z,75762.66
2022-10-14T02:54:27.817Z,75746.47
2022-10-14T03:04:37.180Z,75754.56
2022-10-14T03:14:39.967Z,75758.63
2022-10-14T03:24:45.745Z,75764.69
2022-10-14T03:35:12.796Z,75768.72
2022-10-14T03:45:19.279Z,75772.78
2022-10-14T03:55:23.337Z,75774.81
2022-10-14T04:05:34.355Z,75774.81
2022-10-14T04:15:46.460Z,75782.91
2022-10-14T04:25:56.153Z,75774.81
2022-10-14T04:36:06.097Z,75758.63
2022-10-14T04:46:14.361Z,75744.44
2022-10-14T04:56:21.278Z,75742.41
2022-10-14T05:06:35.238Z,75748.50
2022-10-14T05:16:40.274Z,75752.53
2022-10-14T05:26:47.088Z,75744.44
2022-10-14T05:36:54.706Z,75726.22
2022-10-14T05:47:02.013Z,75722.19
2022-10-14T05:57:09.500Z,75693.84
2022-10-14T06:07:14.031Z,75669.56
2022-10-14T06:17:20.946Z,75657.44
2022-10-14T06:27:28.201Z,75608.84
2022-10-14T06:37:31.456Z,75616.94
2022-10-14T06:47:36.076Z,75608.84
2022-10-14T06:57:45.907Z,75600.75
2022-10-14T07:07:49.260Z,75590.63
2022-10-14T07:17:53.707Z,75584.56
2022-10-14T07:27:58.353Z,75527.91
2022-10-14T07:38:00.917Z,75471.25
2022-10-14T07:48:02.962Z,75398.38
2022-10-14T07:58:11.823Z,75331.59
2022-10-14T08:08:25.754Z,75264.84
2022-10-14T08:18:28.748Z,75185.91
2022-10-14T08:28:33.458Z,75135.31
2022-10-14T08:38:38.217Z,75102.94
2022-10-14T08:48:42.618Z,75072.59
2022-10-14T08:58:50.704Z,75036.19
2022-10-14T09:08:58.762Z,74957.25
2022-10-14T09:19:05.498Z,74900.59
2022-10-14T09:29:27.226Z,74864.19
2022-10-14T09:39:38.333Z,74841.94
2022-10-14T09:49:43.074Z,74833.84
2022-10-14T09:59:55.879Z,74843.94
2022-10-14T10:10:05.776Z,74858.13
2022-10-14T10:20:36.879Z,74829.78
2022-10-14T10:31:00.284Z,74819.66
2022-10-14T10:41:20.659Z,74791.34
2022-10-14T10:51:29.512Z,74754.94
2022-10-14T11:02:01.135Z,74718.50
2022-10-14T11:12:24.039Z,74674.00
2022-10-14T11:22:46.258Z,74653.75
2022-10-14T11:33:13.126Z,74635.56
2022-10-14T11:43:42.212Z,74619.38
2022-10-14T11:54:01.416Z,74605.19
2022-10-14T12:04:34.372Z,74597.09
2022-10-14T12:14:49.663Z,74580.94
2022-10-14T12:24:56.566Z,74552.59
2022-10-14T12:35:01.973Z,74536.41
2022-10-14T12:45:18.657Z,74516.19
2022-10-14T12:55:23.242Z,74512.13
2022-10-14T13:05:51.605Z,74518.19
2022-10-14T13:16:00.635Z,74548.56
2022-10-14T13:26:18.797Z,74562.72
2022-10-14T13:37:00.594Z,74556.66
2022-10-14T13:47:04.989Z,74548.56
2022-10-14T14:18:01.351Z,74584.97
2022-10-14T14:28:08.301Z,74584.97
2022-10-14T14:38:31.541Z,74584.97
2022-10-14T14:48:34.490Z,74593.06
2022-10-14T14:58:38.987Z,74601.16
2022-10-14T15:08:55.121Z,74607.22
2022-10-14T15:19:24.586Z,74609.25
2022-10-14T15:29:28.913Z,74617.34
2022-10-14T15:39:36.888Z,74631.50
2022-10-14T15:49:41.875Z,74627.47
2022-10-14T15:59:48.886Z,74623.41
2022-10-14T16:09:53.953Z,74655.78
2022-10-14T16:20:02.920Z,74663.88
2022-10-14T16:30:12.224Z,74674.00
2022-10-14T16:40:14.851Z,74690.19
2022-10-14T16:50:17.068Z,74704.34
2022-10-14T17:00:20.352Z,74714.47
2022-10-14T17:10:22.706Z,74724.56
2022-10-14T17:20:27.553Z,74746.84
2022-10-14T17:30:30.821Z,74758.97
2022-10-14T17:40:33.979Z,74779.19
2022-10-14T17:50:38.279Z,74787.28
2022-10-14T18:00:45.535Z,74795.38
2022-10-14T18:10:49.819Z,74809.56
2022-10-14T18:20:57.236Z,74811.56
2022-10-14T18:31:16.225Z,74827.75
2022-10-14T18:41:18.435Z,74843.94
2022-10-14T18:51:27.083Z,74864.19
2022-10-14T19:01:30.242Z,74888.47
2022-10-14T19:11:34.350Z,74894.53
2022-10-14T19:21:39.030Z,74892.50
2022-10-14T19:31:45.301Z,74898.59
2022-10-14T19:41:47.629Z,74910.72
2022-10-14T19:51:52.176Z,74920.84
2022-10-14T20:01:56.500Z,74920.84
2022-10-14T20:11:59.582Z,74924.88
2022-10-14T20:22:09.087Z,74932.97
2022-10-14T20:32:17.083Z,74941.06
2022-10-14T20:42:23.868Z,74937.03
2022-10-14T20:52:29.214Z,74937.03
2022-10-14T21:02:34.120Z,74965.34
2022-10-14T21:12:36.956Z,74973.44
2022-10-14T21:22:42.042Z,74985.59
2022-10-14T21:32:44.136Z,74993.69
2022-10-14T21:42:48.395Z,75005.81
2022-10-14T21:52:55.487Z,75003.81
2022-10-14T22:02:58.737Z,75005.81
2022-10-14T22:13:10.638Z,74989.63
2022-10-14T22:23:12.637Z,74993.69
2022-10-14T22:33:19.273Z,74993.69
2022-10-14T22:43:21.411Z,75003.81
2022-10-14T22:53:28.524Z,74999.75
2022-10-14T23:03:31.574Z,74995.72
2022-10-14T23:13:38.936Z,75001.78
2022-10-14T23:23:44.133Z,75001.78
2022-10-14T23:33:52.661Z,74999.75
2022-10-14T23:43:56.426Z,74995.72
2022-10-14T23:54:02.425Z,75009.88
